Time;durP1;ratioP1;P1;durP2;ratioP2;P2;SDS_P1;SDS_P2;PMS_P1;PMS_P2;Temp;Humidity;BMP_temperature;BMP_pressure;BME280_temperature;BME280_humidity;BME280_pressure;Samples;Min_cycle;Max_cycle;Signal;HPM_P1;HPM_P2
2022/05/18 00:02:00;;;;;;;18.30;10.43;;;19.80;99.90;;;;;;5095574;28;20192;-88
2022/05/18 00:04:30;;;;;;;12.23;9.83;;;19.70;99.90;;;;;;5095768;28;20191;-88
2022/05/18 00:06:57;;;;;;;18.87;9.37;;;19.70;99.90;;;;;;5094835;28;20205;-88
2022/05/18 00:09:25;;;;;;;13.70;10.27;;;19.70;99.90;;;;;;5095784;28;20219;-88
2022/05/18 00:11:53;;;;;;;13.17;9.37;;;19.80;99.90;;;;;;5096114;28;20239;-88
2022/05/18 00:14:21;;;;;;;15.50;9.47;;;19.80;99.90;;;;;;5095095;28;20763;-88
2022/05/18 00:16:50;;;;;;;16.27;10.63;;;19.90;99.90;;;;;;5095879;28;20202;-89
2022/05/18 00:19:32;;;;;;;13.87;9.30;;;19.80;99.90;;;;;;5095749;28;20193;-88
2022/05/18 00:22:01;;;;;;;14.07;9.30;;;19.90;99.90;;;;;;5095335;28;20216;-88
2022/05/18 00:24:30;;;;;;;11.43;8.83;;;19.70;99.90;;;;;;5095509;28;20199;-88
2022/05/18 00:26:58;;;;;;;16.37;9.33;;;19.70;99.90;;;;;;5095380;28;20201;-88
2022/05/18 00:29:25;;;;;;;15.47;9.90;;;19.70;99.90;;;;;;5095278;28;20205;-88
2022/05/18 00:31:55;;;;;;;11.53;9.50;;;19.80;99.90;;;;;;5095521;28;20239;-88
2022/05/18 00:34:24;;;;;;;12.87;9.07;;;19.80;99.90;;;;;;5095167;28;20199;-88
2022/05/18 00:36:52;;;;;;;12.53;9.97;;;19.80;99.90;;;;;;5095303;28;20208;-88
2022/05/18 00:39:24;;;;;;;11.43;7.93;;;19.90;99.90;;;;;;5095044;28;20198;-89
2022/05/18 00:41:52;;;;;;;12.23;8.23;;;19.90;99.90;;;;;;5095300;28;20207;-87
2022/05/18 00:44:23;;;;;;;15.87;9.07;;;19.80;99.90;;;;;;5094973;28;20193;-88
2022/05/18 00:47:05;;;;;;;15.57;10.13;;;19.80;99.90;;;;;;5095304;28;20194;-88
2022/05/18 00:49:33;;;;;;;13.63;10.13;;;19.90;99.90;;;;;;5094986;28;20197;-88
2022/05/18 00:52:07;;;;;;;13.80;9.90;;;20.00;99.90;;;;;;5094945;28;20227;-87
2022/05/18 00:54:35;;;;;;;20.80;10.87;;;20.00;99.90;;;;;;5094902;28;20200;-86
2022/05/18 00:57:08;;;;;;;12.90;11.60;;;20.00;99.90;;;;;;5094258;28;20215;-85
2022/05/18 00:59:41;;;;;;;15.63;11.70;;;19.90;99.90;;;;;;5093712;28;21014;-85
2022/05/18 01:02:10;;;;;;;10.30;8.13;;;19.60;99.90;;;;;;5094511;28;20676;-86
2022/05/18 01:04:40;;;;;;;10.60;6.90;;;19.50;99.90;;;;;;5094669;28;20198;-85
2022/05/18 01:07:11;;;;;;;7.13;6.43;;;19.60;99.90;;;;;;5094489;28;20204;-83
2022/05/18 01:09:42;;;;;;;7.37;5.57;;;19.60;99.90;;;;;;5094205;28;20216;-84
2022/05/18 01:12:17;;;;;;;11.20;4.30;;;19.90;99.90;;;;;;5093831;28;20217;-84
2022/05/18 01:14:50;;;;;;;7.40;4.20;;;20.10;99.90;;;;;;5094308;28;20197;-86
2022/05/18 01:17:23;;;;;;;7.83;3.93;;;20.10;99.90;;;;;;5093675;28;20193;-86
2022/05/18 01:19:54;;;;;;;6.63;3.80;;;20.20;99.90;;;;;;5094299;28;20686;-86
2022/05/18 01:22:29;;;;;;;9.00;3.53;;;20.30;99.90;;;;;;5094293;28;20223;-86
2022/05/18 01:25:07;;;;;;;7.87;3.70;;;20.50;99.90;;;;;;5093722;28;20200;-86
2022/05/18 01:27:36;;;;;;;8.30;3.57;;;20.60;99.90;;;;;;5093654;28;20213;-87
2022/05/18 01:30:06;;;;;;;8.23;3.33;;;20.70;99.90;;;;;;5093793;28;20567;-86
2022/05/18 01:32:40;;;;;;;5.97;3.77;;;20.80;99.90;;;;;;5088395;28;20700;-86
2022/05/18 01:35:11;;;;;;;6.33;3.60;;;20.80;99.90;;;;;;5073818;28;20227;-87
2022/05/18 01:37:40;;;;;;;5.77;3.50;;;20.90;99.90;;;;;;5073333;28;20201;-87
2022/05/18 01:40:12;;;;;;;5.80;3.23;;;20.90;99.90;;;;;;5073819;28;20213;-87
2022/05/18 01:42:48;;;;;;;7.53;3.20;;;21.00;99.90;;;;;;5073596;28;20184;-86
2022/05/18 01:45:20;;;;;;;6.40;3.23;;;21.00;99.90;;;;;;5073964;28;20206;-86
2022/05/18 01:47:50;;;;;;;6.20;3.58;;;20.90;99.90;;;;;;5072286;28;20432;-86
2022/05/18 01:50:27;;;;;;;10.13;3.43;;;21.10;99.90;;;;;;5074306;28;20209;-88
2022/05/18 01:52:56;;;;;;;3.43;3.13;;;21.10;99.90;;;;;;5074201;28;20220;-89
2022/05/18 01:55:29;;;;;;;5.07;3.23;;;20.90;99.90;;;;;;5074043;28;20201;-88
2022/05/18 01:57:57;;;;;;;8.77;3.13;;;20.80;99.90;;;;;;5073726;28;20220;-87
2022/05/18 02:00:29;;;;;;;6.20;2.87;;;20.70;99.90;;;;;;5073689;28;20228;-88
2022/05/18 02:02:59;;;;;;;6.97;3.37;;;20.50;99.90;;;;;;5073838;28;20197;-89
2022/05/18 02:05:27;;;;;;;4.83;2.90;;;20.50;99.90;;;;;;5073818;28;20195;-89
2022/05/18 02:07:55;;;;;;;7.27;3.03;;;20.50;99.90;;;;;;5073582;28;20197;-87
2022/05/18 02:10:22;;;;;;;5.23;3.20;;;20.40;99.90;;;;;;5073733;28;20201;-87
2022/05/18 02:12:58;;;;;;;4.17;3.37;;;20.50;99.90;;;;;;5073493;28;20234;-87
2022/05/18 02:15:25;;;;;;;5.43;2.67;;;20.40;99.90;;;;;;5074131;28;20211;-88
2022/05/18 02:17:54;;;;;;;5.80;3.03;;;20.50;99.90;;;;;;5073692;28;20197;-87
2022/05/18 02:20:23;;;;;;;6.63;2.83;;;20.40;99.90;;;;;;5073701;28;20652;-88
2022/05/18 02:22:52;;;;;;;3.23;2.93;;;20.40;99.90;;;;;;5073398;28;20212;-88
2022/05/18 02:25:21;;;;;;;9.20;3.03;;;20.50;99.90;;;;;;5073136;28;20675;-88
2022/05/18 02:27:50;;;;;;;5.80;3.10;;;20.50;99.90;;;;;;5073435;28;20207;-87
2022/05/18 02:30:19;;;;;;;6.87;3.20;;;20.40;99.90;;;;;;5075911;28;20247;-87
2022/05/18 02:32:49;;;;;;;6.33;3.20;;;20.40;99.90;;;;;;5077162;28;20228;-86
2022/05/18 02:35:22;;;;;;;5.20;3.13;;;20.30;99.90;;;;;;5077256;28;20196;-88
2022/05/18 02:37:52;;;;;;;6.00;3.17;;;20.30;99.90;;;;;;5077705;28;20199;-87
2022/05/18 02:40:20;;;;;;;3.50;3.13;;;20.20;99.90;;;;;;5077190;28;20202;-88
2022/05/18 02:42:49;;;;;;;5.17;3.10;;;20.10;99.90;;;;;;5077269;28;20199;-88
2022/05/18 02:45:16;;;;;;;6.23;3.40;;;20.00;99.90;;;;;;5077777;28;20211;-88
2022/05/18 02:47:51;;;;;;;9.53;3.77;;;20.00;99.90;;;;;;5076910;28;20205;-86
2022/05/18 02:50:18;;;;;;;11.27;3.23;;;20.00;99.90;;;;;;5077035;28;20201;-88
2022/05/18 02:52:45;;;;;;;5.50;3.00;;;19.90;99.90;;;;;;5076802;28;20570;-86
2022/05/18 02:57:58;;;;;;;5.80;3.00;;;19.70;99.90;;;;;;5076038;28;20697;-85
2022/05/18 03:00:27;;;;;;;7.30;4.33;;;19.60;99.90;;;;;;5076277;28;20202;-86
2022/05/18 03:02:57;;;;;;;9.43;3.60;;;19.50;99.90;;;;;;5076212;28;20190;-85
2022/05/18 03:05:24;;;;;;;4.43;3.50;;;19.50;99.90;;;;;;5076526;28;20193;-86
2022/05/18 03:07:51;;;;;;;5.37;3.43;;;19.30;99.90;;;;;;5076260;28;20208;-86
2022/05/18 03:10:23;;;;;;;5.33;3.73;;;19.40;99.90;;;;;;5075985;28;20207;-87
2022/05/18 03:12:50;;;;;;;5.60;3.17;;;19.40;99.90;;;;;;5076222;28;20221;-86
2022/05/18 03:15:17;;;;;;;10.20;3.63;;;19.30;99.90;;;;;;5076101;28;20208;-86
2022/05/18 03:17:46;;;;;;;4.70;3.23;;;19.40;99.90;;;;;;5076203;28;20211;-86
2022/05/18 03:25:43;;;;;;;9.60;3.03;;;19.40;99.90;;;;;;5075831;28;20540;-86
2022/05/18 03:28:11;;;;;;;6.37;3.10;;;19.30;99.90;;;;;;5075812;28;20652;-86
2022/05/18 03:30:39;;;;;;;4.97;3.10;;;19.30;99.90;;;;;;5075707;28;20211;-86
2022/05/18 03:33:06;;;;;;;6.07;2.83;;;19.40;99.90;;;;;;5075398;28;20237;-86
2022/05/18 03:35:35;;;;;;;6.13;3.37;;;19.30;99.90;;;;;;5076397;28;20204;-86
2022/05/18 03:38:05;;;;;;;7.43;3.13;;;19.40;99.90;;;;;;5075566;28;20202;-86
2022/05/18 03:40:35;;;;;;;6.47;2.67;;;19.40;99.90;;;;;;5075445;28;20335;-86
2022/05/18 03:43:02;;;;;;;5.13;3.17;;;19.50;99.90;;;;;;5075620;28;20286;-85
2022/05/18 03:45:29;;;;;;;4.95;3.28;;;19.40;99.90;;;;;;5074285;28;20424;-86
2022/05/18 03:47:55;;;;;;;5.17;3.43;;;19.40;99.90;;;;;;5075113;28;20675;-86
2022/05/18 03:50:28;;;;;;;4.27;3.00;;;19.30;99.90;;;;;;5075858;28;20552;-87
2022/05/18 03:52:56;;;;;;;7.73;2.97;;;19.40;99.90;;;;;;5075682;28;20226;-87
2022/05/18 03:55:24;;;;;;;4.80;3.00;;;19.40;99.90;;;;;;5075622;28;20225;-88
2022/05/18 03:57:51;;;;;;;6.97;3.10;;;19.40;99.90;;;;;;5075593;28;20216;-85
2022/05/18 04:00:18;;;;;;;6.00;2.73;;;19.40;99.90;;;;;;5075632;28;20216;-87
2022/05/18 04:02:47;;;;;;;5.13;2.60;;;19.50;99.90;;;;;;5075515;28;20194;-86
2022/05/18 04:05:16;;;;;;;6.00;2.57;;;19.60;99.90;;;;;;5075365;28;20614;-86
2022/05/18 04:07:43;;;;;;;3.63;2.80;;;19.70;99.90;;;;;;5075336;28;20888;-87
2022/05/18 04:10:12;;;;;;;4.83;2.33;;;19.80;99.90;;;;;;5075722;28;20193;-88
2022/05/18 04:12:39;;;;;;;6.77;2.50;;;19.90;99.90;;;;;;5075270;28;20316;-88
2022/05/18 04:15:07;;;;;;;9.43;2.60;;;19.90;99.90;;;;;;5075553;28;20209;-86
2022/05/18 04:17:35;;;;;;;3.00;2.33;;;20.00;99.90;;;;;;5075326;28;20193;-86
2022/05/18 04:20:05;;;;;;;4.90;2.47;;;19.90;99.90;;;;;;5075082;28;20204;-85
2022/05/18 04:22:34;;;;;;;9.03;2.70;;;19.70;99.90;;;;;;5074913;28;20225;-84
2022/05/18 04:25:01;;;;;;;4.87;2.40;;;19.70;99.90;;;;;;5074596;28;20224;-84
2022/05/18 04:27:31;;;;;;;9.50;2.83;;;19.80;99.90;;;;;;5074605;28;20266;-82
2022/05/18 04:29:58;;;;;;;5.20;2.73;;;19.80;99.90;;;;;;5074213;28;20212;-83
2022/05/18 04:32:25;;;;;;;6.97;3.17;;;19.80;99.90;;;;;;5073999;28;20224;-85
2022/05/18 04:34:52;;;;;;;3.80;3.00;;;19.70;99.90;;;;;;5074248;28;20208;-88
2022/05/18 04:37:19;;;;;;;5.67;3.20;;;19.80;99.90;;;;;;5075058;28;20207;-82
2022/05/18 04:39:47;;;;;;;2.93;2.73;;;19.80;99.90;;;;;;5074686;28;20204;-84
2022/05/18 04:42:14;;;;;;;9.07;3.50;;;19.80;99.90;;;;;;5074631;28;20206;-84
2022/05/18 04:44:43;;;;;;;3.73;2.60;;;19.80;99.90;;;;;;5074080;28;20204;-85
2022/05/18 04:47:11;;;;;;;4.83;3.17;;;19.80;99.90;;;;;;5074301;28;20221;-82
2022/05/18 04:49:37;;;;;;;6.50;2.97;;;19.80;99.90;;;;;;5073979;28;20207;-83
2022/05/18 04:52:07;;;;;;;3.40;3.07;;;19.70;99.90;;;;;;5075004;28;20209;-86
2022/05/18 04:54:40;;;;;;;3.83;2.93;;;19.70;99.90;;;;;;5076807;28;20231;-88
2022/05/18 04:57:07;;;;;;;5.17;3.20;;;19.70;99.90;;;;;;5074856;28;20200;-89
2022/05/18 04:59:36;;;;;;;3.80;3.37;;;19.70;99.90;;;;;;5074520;28;20193;-89
2022/05/18 05:02:05;;;;;;;5.67;3.00;;;19.60;99.90;;;;;;5076580;28;20299;-88
2022/05/18 05:04:34;;;;;;;5.20;3.27;;;19.70;99.90;;;;;;5074509;28;20203;-89
2022/05/18 05:07:06;;;;;;;3.80;3.47;;;19.70;99.90;;;;;;5074168;28;20201;-90
2022/05/18 05:09:34;;;;;;;4.43;3.30;;;19.80;99.90;;;;;;5073989;28;20207;-87
2022/05/18 05:12:08;;;;;;;7.73;3.63;;;19.60;99.90;;;;;;5074368;28;20188;-86
2022/05/18 05:14:38;;;;;;;4.87;3.63;;;19.70;99.90;;;;;;5074569;28;20231;-89
2022/05/18 05:17:06;;;;;;;3.87;3.50;;;19.60;99.90;;;;;;5074177;28;20577;-84
2022/05/18 05:19:35;;;;;;;5.67;4.43;;;19.50;99.90;;;;;;5073678;28;20204;-81
2022/05/18 05:22:02;;;;;;;4.47;4.07;;;19.60;99.90;;;;;;5074861;28;20200;-85
2022/05/18 05:24:29;;;;;;;4.30;3.90;;;19.60;99.90;;;;;;5080008;28;20206;-81
2022/05/18 05:26:57;;;;;;;4.87;3.80;;;19.50;99.90;;;;;;5074195;28;20595;-90
2022/05/18 05:29:24;;;;;;;6.43;4.30;;;19.50;99.90;;;;;;5074016;28;20210;-89
2022/05/18 05:31:50;;;;;;;5.60;4.13;;;19.30;99.90;;;;;;5074544;28;20231;-84
2022/05/18 05:34:19;;;;;;;6.00;4.40;;;19.30;99.90;;;;;;5080263;28;20220;-84
2022/05/18 05:36:46;;;;;;;7.63;5.43;;;19.30;99.90;;;;;;5079885;28;20198;-82
2022/05/18 05:39:13;;;;;;;5.20;4.63;;;19.30;99.90;;;;;;5074341;28;20253;-88
2022/05/18 05:41:42;;;;;;;5.40;4.23;;;19.20;99.90;;;;;;5073697;28;20211;-82
2022/05/18 05:44:10;;;;;;;7.90;4.63;;;19.30;99.90;;;;;;5073540;28;20192;-84
2022/05/18 05:46:37;;;;;;;6.63;4.80;;;19.40;99.90;;;;;;5077421;28;20259;-89
2022/05/18 05:49:04;;;;;;;6.80;4.30;;;19.50;99.90;;;;;;5093722;28;20193;-93
2022/05/18 05:51:33;;;;;;;4.40;3.87;;;19.50;99.90;;;;;;5093824;28;20730;-87
2022/05/18 05:54:03;;;;;;;6.77;3.93;;;19.50;99.90;;;;;;5093909;28;20229;-91
2022/05/18 05:56:30;;;;;;;4.67;4.17;;;19.50;99.90;;;;;;5093450;28;20210;-92
2022/05/18 05:58:58;;;;;;;5.50;4.10;;;19.50;99.90;;;;;;5096158;28;20597;-94
2022/05/18 06:01:25;;;;;;;6.43;4.30;;;19.60;99.90;;;;;;5096390;28;20200;-95
2022/05/18 06:03:52;;;;;;;7.70;4.07;;;19.70;99.90;;;;;;5094267;28;20197;-93
2022/05/18 06:06:20;;;;;;;6.93;4.63;;;19.70;99.90;;;;;;5097775;28;20434;-90
2022/05/18 06:08:50;;;;;;;4.33;3.63;;;19.80;99.90;;;;;;5098942;28;20196;-91
2022/05/18 06:11:17;;;;;;;6.67;4.30;;;19.80;99.90;;;;;;5098172;28;20204;-91
2022/05/18 06:13:44;;;;;;;5.10;3.93;;;19.80;99.90;;;;;;5098530;28;20614;-91
2022/05/18 06:16:11;;;;;;;8.47;4.30;;;19.80;99.90;;;;;;5098329;28;20211;-93
2022/05/18 06:18:38;;;;;;;6.37;3.60;;;19.80;99.90;;;;;;5098459;28;20678;-93
2022/05/18 06:21:06;;;;;;;5.60;3.70;;;19.70;99.90;;;;;;5098587;28;20189;-88
2022/05/18 06:23:33;;;;;;;3.93;3.57;;;19.80;99.90;;;;;;5098923;28;20199;-96
2022/05/18 06:26:03;;;;;;;6.27;3.40;;;19.70;99.90;;;;;;5098409;28;20219;-93
2022/05/18 06:28:30;;;;;;;9.03;3.63;;;19.80;99.90;;;;;;5098846;28;20211;-94
2022/05/18 06:30:57;;;;;;;7.03;3.57;;;19.90;99.90;;;;;;5102423;28;20230;-93
2022/05/18 06:33:24;;;;;;;4.70;3.23;;;19.90;99.90;;;;;;5102196;28;20224;-90
2022/05/18 06:35:52;;;;;;;5.00;3.53;;;19.90;99.90;;;;;;5098394;28;20665;-91
2022/05/18 06:38:20;;;;;;;6.07;3.70;;;20.00;99.90;;;;;;5098650;28;20200;-94
2022/05/18 06:43:33;;;;;;;5.17;3.40;;;20.10;99.90;;;;;;5097736;28;20201;-91
2022/05/18 06:46:01;;;;;;;11.87;3.50;;;20.20;99.90;;;;;;5098671;28;20211;-90
2022/05/18 06:48:28;;;;;;;3.77;2.67;;;20.20;99.90;;;;;;5105687;28;20644;-89
2022/05/18 06:50:55;;;;;;;3.67;2.47;;;20.10;99.90;;;;;;5106972;28;20206;-88
2022/05/18 06:53:23;;;;;;;4.83;2.00;;;20.20;99.90;;;;;;5105340;28;20216;-91
2022/05/18 06:55:51;;;;;;;3.07;2.00;;;20.20;99.90;;;;;;5108395;28;20219;-87
2022/05/18 06:58:18;;;;;;;1.97;1.80;;;20.20;99.90;;;;;;5139596;27;20209;-88
2022/05/18 07:00:46;;;;;;;4.97;1.90;;;20.20;99.90;;;;;;5106746;28;20195;-83
2022/05/18 07:03:14;;;;;;;3.33;1.63;;;20.10;99.90;;;;;;5100813;28;20249;-84
2022/05/18 07:05:42;;;;;;;2.63;1.77;;;20.20;99.90;;;;;;5101958;28;20198;-87
2022/05/18 07:08:09;;;;;;;1.90;1.80;;;20.30;99.90;;;;;;5100896;28;20196;-85
2022/05/18 07:10:36;;;;;;;3.30;1.80;;;20.40;99.90;;;;;;5101120;28;20211;-88
2022/05/18 07:13:05;;;;;;;2.80;1.80;;;20.40;99.90;;;;;;5100025;28;20228;-87
2022/05/18 07:15:32;;;;;;;3.40;1.80;;;20.40;99.90;;;;;;5101986;28;20230;-86
2022/05/18 07:18:03;;;;;;;3.72;1.77;;;20.50;99.90;;;;;;5098536;28;20437;-86
2022/05/18 07:20:31;;;;;;;3.40;1.90;;;20.80;99.90;;;;;;5103114;28;20644;-87
2022/05/18 07:23:03;;;;;;;3.93;2.13;;;20.80;99.90;;;;;;5097780;28;20555;-85
2022/05/18 07:25:30;;;;;;;2.73;1.77;;;20.90;99.90;;;;;;5095909;28;20262;-88
2022/05/18 07:27:59;;;;;;;3.17;1.40;;;20.90;99.90;;;;;;5096540;28;20211;-85
2022/05/18 07:30:26;;;;;;;3.70;1.80;;;21.00;99.90;;;;;;5095875;28;20204;-87
2022/05/18 07:32:53;;;;;;;2.03;1.50;;;21.10;99.90;;;;;;5095828;28;20659;-88
2022/05/18 07:35:21;;;;;;;2.97;1.77;;;21.20;99.90;;;;;;5095675;28;20220;-85
2022/05/18 07:37:48;;;;;;;1.90;1.47;;;21.10;99.90;;;;;;5096268;28;20655;-88
2022/05/18 07:40:15;;;;;;;3.63;1.87;;;21.10;99.90;;;;;;5097187;28;20196;-90
2022/05/18 07:42:42;;;;;;;4.60;1.87;;;21.10;99.90;;;;;;5096792;28;20212;-88
2022/05/18 07:45:10;;;;;;;2.73;1.70;;;21.10;99.90;;;;;;5096198;28;20234;-85
2022/05/18 07:47:37;;;;;;;2.13;1.57;;;21.10;99.90;;;;;;5095505;28;20201;-86
2022/05/18 07:50:06;;;;;;;1.30;1.00;;;21.10;99.90;;;;;;5095583;28;20197;-88
2022/05/18 07:52:37;;;;;;;2.53;0.90;;;21.10;99.90;;;;;;5096192;28;20314;-87
2022/05/18 07:55:06;;;;;;;1.67;0.90;;;21.30;99.90;;;;;;5100039;28;20675;-90
2022/05/18 07:57:34;;;;;;;2.30;0.90;;;21.30;99.90;;;;;;5102463;28;20663;-95
2022/05/18 08:00:15;;;;;;;1.53;0.80;;;21.40;99.90;;;;;;5106005;28;20256;-90
2022/05/18 08:05:28;;;;;;;2.80;1.00;;;21.60;99.90;;;;;;5108199;28;20204;-91
2022/05/18 08:07:57;;;;;;;1.10;0.90;;;21.70;99.90;;;;;;5110589;28;20203;-93
2022/05/18 08:15:59;;;;;;;1.93;1.00;;;21.50;99.90;;;;;;5042093;28;20203;-83
2022/05/18 08:18:25;;;;;;;1.43;1.33;;;21.50;99.90;;;;;;5102272;28;20200;-85
2022/05/18 08:20:53;;;;;;;3.60;1.20;;;21.70;99.90;;;;;;5100872;28;20190;-85
2022/05/18 08:23:22;;;;;;;1.93;0.80;;;21.90;99.90;;;;;;5097547;28;20735;-85
2022/05/18 08:25:49;;;;;;;1.40;0.90;;;21.80;99.90;;;;;;5095653;28;20206;-89
2022/05/18 08:28:17;;;;;;;1.77;1.00;;;22.00;99.90;;;;;;5093666;28;20454;-90
2022/05/18 08:30:44;;;;;;;1.23;1.23;;;22.00;99.90;;;;;;5095069;28;20223;-92
2022/05/18 08:33:12;;;;;;;3.27;1.30;;;22.10;99.90;;;;;;5096648;28;20201;-89
2022/05/18 08:35:40;;;;;;;2.00;1.10;;;21.90;99.90;;;;;;5095521;28;20236;-86
2022/05/18 08:38:08;;;;;;;1.77;0.93;;;21.60;99.90;;;;;;5094861;28;20216;-87
2022/05/18 08:40:46;;;;;;;1.70;0.83;;;21.70;99.90;;;;;;5095098;28;20189;-87
2022/05/18 08:43:25;;;;;;;2.57;1.10;;;21.90;99.90;;;;;;5094157;28;20201;-86
2022/05/18 08:46:02;;;;;;;4.83;1.07;;;22.00;99.90;;;;;;5094900;28;20209;-86
2022/05/18 08:48:41;;;;;;;5.00;1.10;;;22.00;99.90;;;;;;5094279;28;20201;-86
2022/05/18 08:51:24;;;;;;;2.00;0.93;;;22.00;99.90;;;;;;5094530;28;20484;-88
2022/05/18 08:54:00;;;;;;;3.03;1.10;;;22.20;99.90;;;;;;5094405;28;20198;-87
2022/05/18 08:56:34;;;;;;;3.30;1.20;;;22.40;99.90;;;;;;5094667;28;20206;-90
2022/05/18 08:59:05;;;;;;;1.10;0.90;;;22.50;99.90;;;;;;5078761;28;20219;-89
2022/05/18 09:01:40;;;;;;;5.10;1.20;;;22.50;99.90;;;;;;5093008;28;20206;-87
2022/05/18 09:04:12;;;;;;;3.60;0.80;;;22.60;99.90;;;;;;5094779;28;20215;-89
2022/05/18 09:06:43;;;;;;;1.20;1.03;;;22.40;99.90;;;;;;5097998;28;20191;-89
2022/05/18 09:12:01;;;;;;;1.13;0.90;;;22.40;99.90;;;;;;5094080;28;20205;-89
2022/05/18 09:14:33;;;;;;;0.85;0.70;;;22.30;99.90;;;;;;5094063;28;20438;-87
2022/05/18 09:17:07;;;;;;;1.53;0.83;;;22.30;99.90;;;;;;5094509;28;20551;-88
2022/05/18 09:19:42;;;;;;;2.43;1.00;;;22.40;99.90;;;;;;5094264;28;20634;-85
2022/05/18 09:22:18;;;;;;;1.73;1.13;;;22.50;99.90;;;;;;5093138;28;20207;-87
2022/05/18 09:24:56;;;;;;;1.80;1.10;;;22.40;99.90;;;;;;5093730;28;20193;-86
2022/05/18 09:27:44;;;;;;;2.97;1.10;;;22.30;99.90;;;;;;5093500;28;20195;-85
2022/05/18 09:30:18;;;;;;;1.70;0.87;;;22.40;99.90;;;;;;5093653;28;20203;-84
2022/05/18 09:33:06;;;;;;;2.37;1.07;;;22.70;99.90;;;;;;5094725;28;20206;-87
2022/05/18 09:35:49;;;;;;;1.23;1.00;;;23.00;99.90;;;;;;5092430;28;20228;-87
2022/05/18 09:38:21;;;;;;;5.17;1.20;;;23.00;99.90;;;;;;5093711;28;20199;-85
2022/05/18 09:40:50;;;;;;;1.90;1.13;;;22.80;99.90;;;;;;5092741;28;20200;-89
2022/05/18 09:43:27;;;;;;;2.83;1.30;;;22.70;99.90;;;;;;5093592;28;20231;-85
2022/05/18 09:45:57;;;;;;;1.60;1.13;;;23.00;99.90;;;;;;5093750;28;20193;-86
2022/05/18 09:48:32;;;;;;;2.87;1.20;;;23.10;99.90;;;;;;5091150;28;20667;-86
2022/05/18 09:50:59;;;;;;;2.40;1.27;;;23.30;99.90;;;;;;5094223;28;20207;-84
2022/05/18 09:53:26;;;;;;;2.90;0.90;;;23.20;99.90;;;;;;5093627;28;20619;-86
2022/05/18 09:55:53;;;;;;;1.83;1.00;;;23.00;99.90;;;;;;5093054;28;20236;-85
2022/05/18 09:58:27;;;;;;;3.17;1.10;;;22.90;99.90;;;;;;5095095;28;20688;-85
2022/05/18 10:07:27;;;;;;;2.30;1.10;;;22.90;99.90;;;;;;5094025;28;20211;-90
2022/05/18 10:09:41;;;;;;;1.77;1.20;;;23.10;99.90;;;;;;5093903;28;20253;-89
2022/05/18 10:12:13;;;;;;;3.53;1.40;;;23.20;99.90;;;;;;5093449;28;20609;-88
2022/05/18 10:14:42;;;;;;;1.10;0.93;;;23.10;99.90;;;;;;5093725;28;20235;-89
2022/05/18 10:17:13;;;;;;;2.03;1.07;;;23.20;99.90;;;;;;5092964;28;20204;-87
2022/05/18 10:19:47;;;;;;;1.97;1.23;;;23.40;99.90;;;;;;5090852;28;20195;-91
2022/05/18 10:22:20;;;;;;;1.53;1.20;;;23.40;99.90;;;;;;5094348;28;20196;-83
2022/05/18 10:24:53;;;;;;;2.07;1.37;;;23.70;99.90;;;;;;5092497;28;20221;-83
2022/05/18 10:27:24;;;;;;;2.13;1.45;;;23.60;99.90;;;;;;5091944;28;20431;-83
2022/05/18 10:30:04;;;;;;;1.00;1.00;;;23.70;99.90;;;;;;5093114;28;20201;-83
2022/05/18 10:32:32;;;;;;;2.30;1.30;;;23.60;99.90;;;;;;5092727;28;20692;-83
2022/05/18 10:35:01;;;;;;;2.73;1.30;;;23.50;99.90;;;;;;5093106;28;20218;-83
2022/05/18 10:37:31;;;;;;;2.87;1.60;;;23.80;99.90;;;;;;5092452;28;20246;-83
2022/05/18 10:40:01;;;;;;;2.00;1.30;;;23.90;99.90;;;;;;5092688;28;20186;-83
2022/05/18 10:42:33;;;;;;;2.70;1.40;;;24.00;99.90;;;;;;5092846;28;20220;-84
2022/05/18 10:45:32;;;;;;;1.83;1.20;;;23.90;99.90;;;;;;5092782;28;20723;-83
2022/05/18 10:48:06;;;;;;;2.23;1.63;;;23.80;99.90;;;;;;5092804;28;20279;-89
2022/05/18 10:50:34;;;;;;;1.63;1.20;;;23.80;99.90;;;;;;5094068;28;20204;-85
2022/05/18 10:53:29;;;;;;;2.17;1.33;;;23.80;99.90;;;;;;5096182;28;20197;-84
2022/05/18 10:56:03;;;;;;;2.80;1.50;;;23.90;99.90;;;;;;5095902;28;20224;-85
2022/05/18 10:58:33;;;;;;;1.70;1.30;;;24.00;99.90;;;;;;5094371;28;20723;-84
2022/05/18 11:01:05;;;;;;;3.73;1.30;;;23.90;99.90;;;;;;5091580;28;20209;-85
2022/05/18 11:03:40;;;;;;;2.90;1.60;;;24.00;99.90;;;;;;5084910;28;20193;-85
2022/05/18 11:06:12;;;;;;;3.40;1.43;;;24.10;99.90;;;;;;5075416;28;20675;-84
2022/05/18 11:08:40;;;;;;;2.97;1.63;;;24.20;99.90;;;;;;5084137;28;20290;-85
2022/05/18 11:11:16;;;;;;;4.33;1.60;;;24.20;99.90;;;;;;5082782;28;20260;-85
2022/05/18 11:13:47;;;;;;;1.77;1.67;;;24.10;99.90;;;;;;5077712;28;20563;-85
2022/05/18 11:16:31;;;;;;;4.13;1.73;;;24.10;99.90;;;;;;5075249;28;20233;-85
2022/05/18 11:19:05;;;;;;;2.70;1.80;;;24.00;99.90;;;;;;5085119;28;20204;-83
2022/05/18 11:21:40;;;;;;;2.87;1.60;;;24.10;99.90;;;;;;5095349;28;20549;-84
2022/05/18 11:24:17;;;;;;;3.57;1.87;;;24.40;99.90;;;;;;5094826;28;20251;-85
2022/05/18 11:26:54;;;;;;;2.50;1.80;;;24.60;99.90;;;;;;5082244;28;20204;-86
2022/05/18 11:29:35;;;;;;;3.73;2.13;;;24.30;99.90;;;;;;5086491;28;20221;-85
2022/05/18 11:32:20;;;;;;;6.30;1.63;;;24.30;99.90;;;;;;5074843;28;20218;-84
2022/05/18 11:34:59;;;;;;;2.13;1.53;;;24.40;99.90;;;;;;5077510;28;20573;-86
2022/05/18 11:37:44;;;;;;;9.07;2.53;;;24.60;99.90;;;;;;5076740;28;20194;-85
2022/05/18 11:40:18;;;;;;;1.70;1.40;;;24.60;99.90;;;;;;5083342;28;20205;-85
2022/05/18 11:42:58;;;;;;;3.20;1.50;;;24.80;99.90;;;;;;5094802;28;20215;-85
2022/05/18 11:45:38;;;;;;;2.43;1.50;;;24.70;99.90;;;;;;5093697;28;20593;-85
2022/05/18 11:48:24;;;;;;;1.27;1.17;;;24.50;99.90;;;;;;5094138;28;20201;-85
2022/05/18 11:51:00;;;;;;;2.03;1.40;;;24.50;99.90;;;;;;5088216;28;20209;-82
2022/05/18 11:53:40;;;;;;;3.63;1.67;;;24.40;99.90;;;;;;5093774;28;20211;-83
2022/05/18 11:56:22;;;;;;;2.13;1.10;;;24.30;99.90;;;;;;5092394;28;20235;-82
2022/05/18 11:59:10;;;;;;;2.07;1.33;;;24.70;99.90;;;;;;5094763;28;20216;-81
2022/05/18 12:01:45;;;;;;;4.53;1.50;;;24.70;99.90;;;;;;5095244;28;20568;-81
2022/05/18 12:04:43;;;;;;;1.27;1.17;;;24.80;99.90;;;;;;5095345;28;20299;-82
2022/05/18 12:07:22;;;;;;;7.50;1.90;;;25.10;99.90;;;;;;5095000;28;20199;-84
2022/05/18 12:10:13;;;;;;;4.80;1.57;;;24.90;99.90;;;;;;5094359;28;20201;-80
2022/05/18 12:12:49;;;;;;;2.93;2.03;;;25.10;99.90;;;;;;5093982;28;20197;-81
2022/05/18 12:15:21;;;;;;;4.77;2.10;;;25.40;99.90;;;;;;5074692;28;20230;-82
2022/05/18 12:17:53;;;;;;;3.90;1.60;;;25.70;99.90;;;;;;5074632;28;20614;-82
2022/05/18 12:20:26;;;;;;;4.83;1.50;;;25.70;99.90;;;;;;5074657;28;20206;-84
2022/05/18 12:22:56;;;;;;;4.60;1.57;;;25.70;99.90;;;;;;5074694;28;20194;-83
2022/05/18 12:25:25;;;;;;;2.47;1.70;;;25.80;99.90;;;;;;5079370;28;20193;-79
2022/05/18 12:27:55;;;;;;;6.40;1.77;;;26.00;99.90;;;;;;5094576;28;20217;-83
2022/05/18 12:30:24;;;;;;;1.93;1.30;;;26.00;99.90;;;;;;5094645;28;20212;-82
2022/05/18 12:32:53;;;;;;;1.43;1.07;;;25.80;99.90;;;;;;5094610;28;20201;-83
2022/05/18 12:35:26;;;;;;;6.17;1.67;;;25.80;99.90;;;;;;5093432;28;20703;-80
2022/05/18 12:38:04;;;;;;;2.30;1.50;;;25.80;99.90;;;;;;5093884;28;20204;-77
2022/05/18 12:40:54;;;;;;;3.93;1.37;;;25.80;99.90;;;;;;5094910;28;20208;-79
2022/05/18 12:43:27;;;;;;;2.83;1.60;;;25.70;99.90;;;;;;5091473;28;20278;-83
2022/05/18 12:46:00;;;;;;;4.53;1.60;;;25.60;99.90;;;;;;5094580;28;20208;-81
2022/05/18 12:48:39;;;;;;;3.00;2.00;;;25.40;99.90;;;;;;5092584;28;20426;-84
2022/05/18 12:51:15;;;;;;;4.03;1.83;;;25.60;99.90;;;;;;5094357;28;20201;-85
2022/05/18 12:53:59;;;;;;;2.03;1.70;;;25.50;99.90;;;;;;5093529;28;20196;-85
2022/05/18 12:56:27;;;;;;;2.77;1.60;;;25.60;99.90;;;;;;5094095;28;20240;-85
2022/05/18 12:58:57;;;;;;;3.87;1.93;;;25.70;99.90;;;;;;5094217;28;20236;-85
2022/05/18 13:01:29;;;;;;;3.90;1.60;;;25.90;99.90;;;;;;5094395;28;20284;-85
2022/05/18 13:04:01;;;;;;;1.33;1.20;;;26.10;99.90;;;;;;5093671;28;20235;-85
2022/05/18 13:06:49;;;;;;;3.43;1.70;;;26.40;99.90;;;;;;5094359;28;20205;-85
2022/05/18 13:09:36;;;;;;;2.83;1.27;;;26.50;99.90;;;;;;5093747;28;20205;-86
2022/05/18 13:12:32;;;;;;;4.63;1.40;;;26.60;99.90;;;;;;5093905;28;20246;-86
2022/05/18 13:15:03;;;;;;;2.60;1.10;;;26.80;99.90;;;;;;5093606;28;20201;-86
2022/05/18 13:17:51;;;;;;;2.67;1.30;;;26.90;99.90;;;;;;5093489;28;20209;-86
2022/05/18 13:20:52;;;;;;;1.40;1.30;;;27.20;99.90;;;;;;5090617;28;20213;-85
2022/05/18 13:23:34;;;;;;;1.25;1.13;;;27.50;99.90;;;;;;5093907;28;20189;-87
2022/05/18 13:26:03;;;;;;;3.13;1.35;;;27.60;99.90;;;;;;5093557;28;20200;-85
2022/05/18 13:28:33;;;;;;;2.10;1.50;;;27.60;99.90;;;;;;5093700;28;20211;-85
2022/05/18 13:31:02;;;;;;;2.58;1.48;;;27.80;99.90;;;;;;5093448;28;20221;-86
2022/05/18 13:33:37;;;;;;;5.13;1.50;;;27.90;99.90;;;;;;5093364;28;20205;-85
2022/05/18 13:36:04;;;;;;;2.05;1.30;;;27.90;99.90;;;;;;5093379;28;20566;-85